Allouez, WI

7:42 PM CST on March 06, 2015 (GMT -0600)
Bellevue | Change Station
CLOSE
Current Station
Personal Weather Station
Location: Green Bay, WI
Elevation: 614 ft
Nearby Weather Stations

Elev 614 ft 44.46 °N, 87.98 °W | Updated 1 minute ago

Clear
Clear
24.8 °F
Feels Like 25 °F
N
1.8
Wind Variable Wind from SE
Gusts 2.7 mph

Today
High -- | Low -- °F
--% Chance of Precip.
Yesterday
High -- | Low -- °F
Precip. -- in
6:21 AM 5:46 PM
Full, 98% visible
Pressure 30.08 in
Visibility 10.0 miles
Clouds Clear
Windchill 25 °F
Dew Point 16 °F
Humidity 68%
Rainfall in
Snow Depth Not available.
UV 0 out of 12
Pollen .40 out of 12
Air Quality Not available.
Flu Activity Not available.
METAR KGRB 070053Z 21006KT 10SM CLR M05/M09 A3003 RMK AO2 SLP186 T10501094

More Conditions Fewer Conditions

Pressure 30.08 in
Visibility 10.0 miles
Clouds Clear
Windchill 25 °F
Dew Point 16 °F
Humidity 68%
Rainfall in
Snow Depth Not available.
UV 0 out of 12
Pollen .40 out of 12
Air Quality Not available.
Flu Activity Not available.
METAR KGRB 070053Z 21006KT 10SM CLR M05/M09 A3003 RMK AO2 SLP186 T10501094

More Conditions Fewer Conditions

10-Day Weather Forecast

Almanac

Astronomy

Mar. 06, 2015 Rise Set
Actual Time
Civil Twilight
Nautical Twilight
Astronomical Twilight
Moon
Length of Visible Light
Length of Day
Tomorrow will be .
, % of the Moon is Illuminated

Today's Extremes

State Highs State Lows

Community

WunderPhotos

Upload Photos

1,803,494 photos uploaded!

WunderBlogs® & News

Nearby

Air Quality

  Air Quality AQ Index Pollutant
Not available.

Snow Depth

Station Depth Elevation

Earthquake Activity

City Distance Mag. Time & Date
Minimum magnitude displayed is 2.5.

Coastal Water Temperatures

Place Temperature

Nearby Weather Stations